Time;durP1;ratioP1;P1;durP2;ratioP2;P2;SDS_P1;SDS_P2;PMS_P1;PMS_P2;Temp;Humidity;BMP_temperature;BMP_pressure;BME280_temperature;BME280_humidity;BME280_pressure;Samples;Min_cycle;Max_cycle;Signal;HPM_P1;HPM_P2
2022/12/11 00:00:50;;;;;;;38.55;15.02;;;-0.70;99.90;;;;;;5108803;27;20043;-83
2022/12/11 00:03:17;;;;;;;45.53;15.35;;;0.20;99.90;;;;;;5108754;27;20524;-83
2022/12/11 00:05:43;;;;;;;49.30;17.30;;;-0.70;99.90;;;;;;5127274;27;20135;-83
2022/12/11 00:08:09;;;;;;;42.95;15.05;;;-0.60;99.90;;;;;;5126484;27;20051;-82
2022/12/11 00:10:35;;;;;;;42.22;14.90;;;-0.70;99.90;;;;;;5091886;27;20047;-83
2022/12/11 00:13:01;;;;;;;46.85;13.88;;;-0.60;99.90;;;;;;5107003;27;20082;-83
2022/12/11 00:15:28;;;;;;;35.85;14.75;;;-0.60;99.90;;;;;;5108997;27;20045;-82
2022/12/11 00:17:54;;;;;;;50.35;16.80;;;0.60;99.90;;;;;;5107751;27;20080;-83
2022/12/11 00:20:20;;;;;;;45.55;16.15;;;-0.60;99.90;;;;;;5108233;27;20435;-82
2022/12/11 00:22:45;;;;;;;45.75;16.27;;;-0.60;99.90;;;;;;5090497;27;20092;-83
2022/12/11 00:25:11;;;;;;;51.20;16.70;;;0.30;99.90;;;;;;5126007;27;20086;-83
2022/12/11 00:27:37;;;;;;;41.53;15.18;;;-0.30;99.90;;;;;;5126960;27;20118;-82
2022/12/11 00:30:04;;;;;;;44.53;16.52;;;-0.60;99.90;;;;;;5089903;27;20043;-83
2022/12/11 00:32:30;;;;;;;44.22;16.80;;;-0.60;99.90;;;;;;5126861;27;20084;-83
2022/12/11 00:34:56;;;;;;;47.45;16.40;;;-0.60;99.90;;;;;;5106726;27;20518;-83
2022/12/11 00:37:22;;;;;;;51.95;15.82;;;-0.50;99.90;;;;;;5108708;28;20126;-83
2022/12/11 00:39:48;;;;;;;47.10;15.85;;;-0.50;99.90;;;;;;5107095;27;20478;-83
2022/12/11 00:42:13;;;;;;;41.10;15.32;;;-0.50;99.90;;;;;;5125845;27;20039;-83
2022/12/11 00:44:39;;;;;;;42.03;14.70;;;-0.50;99.90;;;;;;5107982;27;20075;-83
2022/12/11 00:47:05;;;;;;;38.15;14.55;;;-0.50;99.90;;;;;;5106874;27;20091;-83
2022/12/11 00:49:30;;;;;;;42.92;13.65;;;-0.50;99.90;;;;;;5108699;27;20130;-83
2022/12/11 00:51:56;;;;;;;42.78;14.57;;;-0.40;99.90;;;;;;5090131;27;20085;-82
2022/12/11 00:54:22;;;;;;;35.80;13.70;;;0.50;99.90;;;;;;5108314;28;20047;-83
2022/12/11 00:56:47;;;;;;;39.47;14.55;;;-0.40;99.90;;;;;;5106658;28;20043;-82
2022/12/11 00:59:13;;;;;;;43.15;13.85;;;-0.40;99.90;;;;;;5107163;28;20046;-82
2022/12/11 01:01:39;;;;;;;36.88;14.07;;;-0.40;99.90;;;;;;5108176;28;20078;-82
2022/12/11 01:04:04;;;;;;;38.97;13.90;;;-0.30;99.90;;;;;;5125627;28;20043;-83
2022/12/11 01:06:30;;;;;;;43.63;13.65;;;0.10;99.90;;;;;;5091576;28;20091;-82
2022/12/11 01:11:41;;;;;;;35.38;12.55;;;-0.30;99.90;;;;;;5093525;28;20051;-82
2022/12/11 01:14:08;;;;;;;33.58;12.80;;;-0.30;99.90;;;;;;5107866;28;20191;-83
2022/12/11 01:16:34;;;;;;;36.55;12.98;;;-0.20;99.90;;;;;;5089995;28;20126;-82
2022/12/11 01:19:00;;;;;;;39.53;14.15;;;-0.20;99.90;;;;;;5107670;28;20075;-82
2022/12/11 01:21:26;;;;;;;34.80;13.65;;;-0.20;99.90;;;;;;5090222;28;20119;-82
2022/12/11 01:23:52;;;;;;;32.83;12.75;;;-0.20;99.90;;;;;;5108243;28;20118;-82
2022/12/11 01:26:18;;;;;;;34.50;12.18;;;0.80;99.90;;;;;;5089503;28;20060;-82
2022/12/11 01:28:44;;;;;;;36.67;14.65;;;-0.20;99.90;;;;;;5108519;28;20051;-83
2022/12/11 01:31:11;;;;;;;44.60;13.90;;;-0.20;99.90;;;;;;5125545;28;20465;-83
2022/12/11 01:33:38;;;;;;;37.63;12.60;;;-0.20;99.90;;;;;;5090476;27;20044;-83
2022/12/11 01:36:13;;;;;;;34.35;12.95;;;-0.20;99.90;;;;;;5110688;27;20036;-83
2022/12/11 01:38:38;;;;;;;38.38;13.60;;;-0.10;99.90;;;;;;5110119;27;20131;-83
2022/12/11 01:41:04;;;;;;;35.65;12.52;;;-0.10;99.90;;;;;;5095686;27;20126;-83
2022/12/11 01:43:30;;;;;;;35.22;12.55;;;-0.10;99.90;;;;;;5110165;27;20535;-82
2022/12/11 01:45:56;;;;;;;35.03;14.77;;;-0.10;99.90;;;;;;5111769;27;20588;-82
2022/12/11 01:48:28;;;;;;;34.13;13.63;;;-1.20;99.90;;;;;;5110790;27;20130;-82
2022/12/11 01:50:58;;;;;;;32.17;12.68;;;0.00;99.90;;;;;;5110573;27;20047;-81
2022/12/11 01:53:42;;;;;;;46.80;15.27;;;0.00;99.90;;;;;;5111481;27;20047;-82
2022/12/11 01:56:08;;;;;;;37.35;14.65;;;0.00;99.90;;;;;;5128566;27;20550;-81
2022/12/11 01:58:39;;;;;;;43.25;15.15;;;0.00;99.90;;;;;;5095281;27;20043;-82
2022/12/11 02:01:05;;;;;;;46.65;15.98;;;0.00;99.90;;;;;;5110090;27;20039;-82
2022/12/11 02:03:31;;;;;;;49.35;14.98;;;0.00;99.90;;;;;;5110745;27;20051;-82
2022/12/11 02:06:01;;;;;;;41.85;15.35;;;0.00;99.90;;;;;;5111228;27;20050;-82
2022/12/11 02:08:28;;;;;;;47.13;14.95;;;0.00;99.90;;;;;;5093021;27;20047;-82
2022/12/11 02:11:04;;;;;;;45.65;15.93;;;0.10;99.90;;;;;;5095210;27;20104;-82
2022/12/11 02:13:34;;;;;;;44.42;16.88;;;0.10;99.90;;;;;;5109066;27;20083;-83
2022/12/11 02:16:18;;;;;;;52.55;16.30;;;0.00;99.90;;;;;;5111621;27;20047;-82
2022/12/11 02:18:50;;;;;;;46.88;15.95;;;0.10;99.90;;;;;;5110045;27;20084;-83
2022/12/11 02:21:25;;;;;;;50.83;17.25;;;0.10;99.90;;;;;;5109805;27;20074;-83
2022/12/11 02:24:05;;;;;;;50.58;16.40;;;0.10;99.90;;;;;;5111289;27;20051;-82
2022/12/11 02:27:07;;;;;;;44.47;16.58;;;0.10;99.90;;;;;;5109350;27;20070;-83
2022/12/11 02:29:44;;;;;;;51.58;15.80;;;0.10;99.90;;;;;;5128529;27;20078;-83
2022/12/11 02:32:12;;;;;;;47.95;15.57;;;0.10;99.90;;;;;;5110552;27;20498;-81
2022/12/11 02:34:47;;;;;;;48.65;16.13;;;0.10;99.90;;;;;;5108820;27;20099;-82
2022/12/11 02:37:19;;;;;;;51.60;15.48;;;0.10;99.90;;;;;;5111004;27;20050;-81
2022/12/11 02:39:46;;;;;;;52.60;17.75;;;0.10;99.90;;;;;;5109567;27;20058;-82
2022/12/11 02:42:15;;;;;;;46.55;16.40;;;0.30;99.90;;;;;;5092767;27;20043;-82
2022/12/11 02:44:42;;;;;;;53.10;17.65;;;0.20;99.90;;;;;;5128997;27;20043;-82
2022/12/11 02:47:13;;;;;;;48.03;16.70;;;0.20;99.90;;;;;;5108954;27;20407;-83
2022/12/11 02:49:43;;;;;;;49.42;16.92;;;0.20;99.90;;;;;;5111011;27;20132;-83
2022/12/11 02:52:11;;;;;;;44.25;16.05;;;0.20;99.90;;;;;;5127760;27;20498;-82
2022/12/11 02:54:40;;;;;;;49.58;16.45;;;0.20;99.90;;;;;;5093641;27;20039;-82
2022/12/11 02:57:12;;;;;;;53.97;17.88;;;0.20;99.90;;;;;;5109273;27;20120;-82
2022/12/11 02:59:41;;;;;;;55.15;17.85;;;0.20;99.90;;;;;;5109289;27;20519;-80
2022/12/11 03:02:07;;;;;;;53.92;17.08;;;0.20;99.90;;;;;;5110195;27;20051;-81
2022/12/11 03:04:35;;;;;;;46.03;16.00;;;0.30;99.90;;;;;;5108377;27;20486;-81
2022/12/11 03:07:10;;;;;;;51.30;15.68;;;0.30;99.90;;;;;;5110665;27;20100;-81
2022/12/11 03:09:38;;;;;;;52.90;17.45;;;0.30;99.90;;;;;;5108651;27;20047;-80
2022/12/11 03:12:05;;;;;;;53.25;16.73;;;0.30;99.90;;;;;;5110273;27;20047;-80
2022/12/11 03:14:31;;;;;;;49.17;15.45;;;0.30;99.90;;;;;;5110255;27;20122;-80
2022/12/11 03:17:20;;;;;;;47.03;16.40;;;0.30;99.90;;;;;;5109834;27;20473;-81
2022/12/11 03:19:55;;;;;;;45.10;15.73;;;0.30;99.90;;;;;;5111785;27;20057;-81
2022/12/11 03:22:37;;;;;;;44.60;14.82;;;0.30;99.90;;;;;;5108844;27;20047;-82
2022/12/11 03:25:09;;;;;;;53.10;15.93;;;0.30;99.90;;;;;;5110010;27;20180;-82
2022/12/11 03:28:08;;;;;;;40.30;13.77;;;0.30;99.90;;;;;;5110289;27;20050;-81
2022/12/11 03:30:37;;;;;;;47.92;14.98;;;0.30;99.90;;;;;;5109549;27;20453;-82
2022/12/11 03:33:12;;;;;;;48.80;15.05;;;0.30;99.90;;;;;;5111159;27;20089;-82
2022/12/11 03:35:42;;;;;;;44.00;14.38;;;0.40;99.90;;;;;;5109323;27;20502;-82
2022/12/11 03:38:12;;;;;;;46.88;15.70;;;0.40;99.90;;;;;;5128112;27;20274;-82
2022/12/11 03:40:41;;;;;;;45.03;15.60;;;0.40;99.90;;;;;;5128292;27;20046;-82
2022/12/11 03:43:08;;;;;;;41.33;14.68;;;0.40;99.90;;;;;;5108424;27;20118;-82
2022/12/11 03:45:34;;;;;;;42.45;15.55;;;0.40;99.90;;;;;;5111098;27;20507;-82
2022/12/11 03:48:01;;;;;;;56.35;16.35;;;0.40;99.90;;;;;;5090794;27;20099;-82
2022/12/11 03:50:30;;;;;;;49.75;15.57;;;0.40;99.90;;;;;;5110482;27;20050;-81
2022/12/11 03:52:57;;;;;;;55.17;18.80;;;0.40;99.90;;;;;;5108680;27;20051;-82
2022/12/11 03:55:24;;;;;;;50.58;15.98;;;1.10;99.90;;;;;;5109456;27;20482;-81
2022/12/11 03:57:50;;;;;;;47.35;16.88;;;0.40;99.90;;;;;;5108971;27;20616;-82
2022/12/11 04:00:18;;;;;;;41.97;14.70;;;0.40;99.90;;;;;;5108807;27;20051;-82
2022/12/11 04:03:11;;;;;;;45.33;14.95;;;0.40;99.90;;;;;;5110549;27;20195;-81
2022/12/11 04:05:30;;;;;;;44.67;16.00;;;0.40;99.90;;;;;;5093741;27;20085;-81
2022/12/11 04:07:55;;;;;;;46.58;15.45;;;0.40;99.90;;;;;;5075988;27;20549;-81
2022/12/11 04:10:21;;;;;;;51.45;16.15;;;0.50;99.90;;;;;;5108422;27;20062;-81
2022/12/11 04:12:46;;;;;;;46.00;15.77;;;0.50;99.90;;;;;;5108440;27;20043;-82
2022/12/11 04:15:12;;;;;;;51.13;15.20;;;1.10;99.90;;;;;;5092611;27;20088;-82
2022/12/11 04:26:14;;;;;;;43.80;14.50;;;0.50;99.90;;;;;;5026102;28;19928;-82
2022/12/11 04:28:40;;;;;;;52.47;14.65;;;0.50;99.90;;;;;;5068720;27;20494;-81
2022/12/11 04:31:10;;;;;;;42.97;14.43;;;0.50;99.90;;;;;;5089366;27;20055;-81
2022/12/11 04:33:35;;;;;;;36.55;13.70;;;0.50;99.90;;;;;;5109311;27;20055;-81
2022/12/11 04:36:01;;;;;;;42.38;14.95;;;0.50;99.90;;;;;;5073211;27;20456;-81
2022/12/11 04:38:26;;;;;;;38.97;14.23;;;0.50;99.90;;;;;;5091328;27;20117;-80
2022/12/11 04:40:59;;;;;;;41.40;14.07;;;0.50;99.90;;;;;;5091051;27;20397;-81
2022/12/11 04:43:26;;;;;;;35.45;13.48;;;0.50;99.90;;;;;;5107279;27;20548;-81
2022/12/11 04:46:03;;;;;;;40.30;14.95;;;0.50;99.90;;;;;;5092767;28;20047;-82
2022/12/11 04:48:29;;;;;;;44.53;15.27;;;0.50;99.90;;;;;;5106509;27;20071;-81
2022/12/11 04:50:55;;;;;;;40.60;14.82;;;0.50;99.90;;;;;;5109187;28;20039;-82
2022/12/11 04:53:20;;;;;;;40.03;14.55;;;0.50;99.90;;;;;;5090491;28;20065;-82
2022/12/11 04:55:46;;;;;;;39.63;15.45;;;0.60;99.90;;;;;;5091378;28;20380;-81
2022/12/11 04:58:12;;;;;;;42.80;14.73;;;0.60;99.90;;;;;;5091485;28;20380;-81
2022/12/11 05:00:39;;;;;;;45.80;14.63;;;0.60;99.90;;;;;;5090403;28;20042;-81
2022/12/11 05:03:05;;;;;;;37.50;14.27;;;0.60;99.90;;;;;;5128537;28;20043;-81
2022/12/11 05:05:30;;;;;;;38.90;14.43;;;0.60;99.90;;;;;;5089799;28;20047;-81
2022/12/11 05:07:56;;;;;;;42.00;15.75;;;0.60;99.90;;;;;;5092221;28;20054;-81
2022/12/11 05:10:22;;;;;;;42.75;13.35;;;0.60;99.90;;;;;;5092212;27;20047;-82
2022/12/11 05:12:48;;;;;;;38.97;13.55;;;0.60;99.90;;;;;;5096512;27;20050;-80
2022/12/11 05:15:13;;;;;;;40.78;13.85;;;0.60;99.90;;;;;;5111846;27;20043;-81
2022/12/11 05:17:39;;;;;;;38.72;14.77;;;0.60;99.90;;;;;;5111296;27;20468;-81
2022/12/11 05:20:05;;;;;;;41.45;16.00;;;0.60;99.90;;;;;;5079164;27;20043;-81
2022/12/11 05:22:31;;;;;;;42.10;15.13;;;0.60;99.90;;;;;;5110409;27;20170;-81
2022/12/11 05:24:57;;;;;;;43.30;14.77;;;0.60;99.90;;;;;;5096649;27;20070;-81
2022/12/11 05:27:23;;;;;;;41.47;13.90;;;0.60;99.90;;;;;;5110414;27;20040;-80
2022/12/11 05:29:48;;;;;;;32.67;13.95;;;0.60;99.90;;;;;;5112818;27;20519;-81
2022/12/11 05:32:15;;;;;;;40.05;14.63;;;1.20;99.90;;;;;;5111279;27;20046;-81
2022/12/11 05:34:40;;;;;;;43.65;15.02;;;0.60;99.90;;;;;;5111790;27;20043;-82
2022/12/11 05:37:06;;;;;;;37.80;14.02;;;0.60;99.90;;;;;;5112682;27;20046;-81
2022/12/11 05:39:32;;;;;;;39.28;14.18;;;0.60;99.90;;;;;;5093830;27;20091;-81
2022/12/11 05:41:57;;;;;;;35.50;13.43;;;0.60;99.90;;;;;;5113241;27;20163;-82
2022/12/11 05:44:24;;;;;;;37.40;13.18;;;0.60;99.90;;;;;;5077039;27;20094;-82
2022/12/11 05:46:49;;;;;;;37.38;14.50;;;0.50;99.90;;;;;;5113006;27;20482;-81
2022/12/11 05:49:15;;;;;;;45.05;16.50;;;0.60;99.90;;;;;;5129522;27;20130;-81
2022/12/11 05:51:42;;;;;;;42.67;14.98;;;0.60;99.90;;;;;;5112152;27;20043;-81
2022/12/11 05:54:09;;;;;;;48.80;15.10;;;0.60;99.90;;;;;;5095186;27;20409;-81
2022/12/11 05:56:36;;;;;;;39.75;13.85;;;0.60;99.90;;;;;;5111225;27;20058;-80
2022/12/11 05:59:03;;;;;;;42.33;15.00;;;0.70;99.90;;;;;;5131251;27;20544;-81
2022/12/11 06:01:34;;;;;;;45.92;15.55;;;1.20;99.90;;;;;;5093472;27;20054;-80
2022/12/11 06:04:00;;;;;;;37.22;15.40;;;0.70;99.90;;;;;;5112314;27;20473;-81
2022/12/11 06:06:27;;;;;;;39.83;15.32;;;0.60;99.90;;;;;;5110132;27;20047;-80
2022/12/11 06:08:54;;;;;;;49.90;16.00;;;0.70;99.90;;;;;;5111828;27;20134;-80
2022/12/11 06:11:21;;;;;;;35.65;14.68;;;0.70;99.90;;;;;;5094591;27;20379;-80
2022/12/11 06:13:47;;;;;;;41.40;14.93;;;0.70;99.90;;;;;;5110879;27;20077;-80
2022/12/11 06:16:13;;;;;;;35.80;13.43;;;0.70;99.90;;;;;;5111940;27;20083;-80
2022/12/11 06:18:41;;;;;;;38.80;14.20;;;0.70;99.90;;;;;;5108941;27;20046;-80
2022/12/11 06:21:18;;;;;;;33.47;14.00;;;0.70;99.90;;;;;;5111147;27;20523;-81
2022/12/11 06:23:45;;;;;;;38.50;15.00;;;0.70;99.90;;;;;;5109250;27;20047;-80
2022/12/11 06:26:12;;;;;;;40.45;15.85;;;0.70;99.90;;;;;;5093553;27;20084;-82
2022/12/11 06:28:39;;;;;;;37.22;14.88;;;0.70;99.90;;;;;;5110932;27;20458;-82
2022/12/11 06:31:05;;;;;;;37.08;14.23;;;0.70;99.90;;;;;;5109456;27;20066;-81
2022/12/11 06:33:31;;;;;;;37.15;13.57;;;0.70;99.90;;;;;;5094066;27;20039;-81
2022/12/11 06:36:04;;;;;;;41.05;14.95;;;0.70;99.90;;;;;;5091393;27;20047;-81
2022/12/11 06:38:30;;;;;;;38.47;13.60;;;0.70;99.90;;;;;;5094227;27;20512;-80
2022/12/11 06:40:57;;;;;;;41.03;14.07;;;0.70;99.90;;;;;;5092556;27;20039;-79
2022/12/11 06:43:23;;;;;;;31.05;12.70;;;0.70;99.90;;;;;;5093497;27;20039;-80
2022/12/11 06:45:49;;;;;;;40.10;14.73;;;0.70;99.90;;;;;;5093106;27;20055;-80
2022/12/11 06:48:15;;;;;;;38.53;13.70;;;0.70;99.90;;;;;;5109488;27;20380;-81
2022/12/11 06:50:41;;;;;;;37.03;13.77;;;0.70;99.90;;;;;;5094238;27;20126;-81
2022/12/11 06:53:06;;;;;;;33.40;12.85;;;0.70;99.90;;;;;;5091191;27;20075;-81
2022/12/11 06:55:35;;;;;;;37.55;13.48;;;2.00;99.90;;;;;;5111129;27;20092;-80
2022/12/11 06:58:01;;;;;;;43.05;15.63;;;0.70;99.90;;;;;;5108867;27;20149;-81
2022/12/11 07:00:27;;;;;;;37.50;14.30;;;1.80;99.90;;;;;;5110800;27;20039;-81
2022/12/11 07:02:53;;;;;;;32.40;12.75;;;0.70;99.90;;;;;;5092324;27;20039;-81
2022/12/11 07:05:19;;;;;;;36.55;13.48;;;0.70;99.90;;;;;;5110290;27;20086;-81
2022/12/11 07:07:44;;;;;;;34.78;12.43;;;0.70;99.90;;;;;;5107139;28;20555;-80
2022/12/11 07:10:10;;;;;;;43.15;14.63;;;0.70;99.90;;;;;;5088565;28;20046;-80
2022/12/11 07:12:36;;;;;;;35.50;12.80;;;0.70;99.90;;;;;;5090984;28;20066;-81
2022/12/11 07:15:03;;;;;;;46.08;14.90;;;0.70;99.90;;;;;;5087734;28;20040;-81
2022/12/11 07:17:29;;;;;;;36.22;13.85;;;0.70;99.90;;;;;;5089955;28;20043;-80
2022/12/11 07:19:54;;;;;;;38.58;13.57;;;0.70;99.90;;;;;;5054527;28;20043;-81
2022/12/11 07:22:20;;;;;;;40.75;14.52;;;0.70;99.90;;;;;;5106164;28;20084;-81
2022/12/11 07:24:46;;;;;;;38.60;14.18;;;0.70;99.90;;;;;;5089088;28;20050;-80
2022/12/11 07:27:12;;;;;;;38.35;14.20;;;0.70;99.90;;;;;;5104823;28;20517;-81
2022/12/11 07:29:37;;;;;;;41.13;14.70;;;0.70;99.90;;;;;;5106767;28;20121;-82
2022/12/11 07:32:03;;;;;;;34.45;14.18;;;0.70;99.90;;;;;;5103925;28;20053;-81
2022/12/11 07:34:29;;;;;;;45.33;14.23;;;0.70;99.90;;;;;;5106053;28;20043;-81
2022/12/11 07:36:55;;;;;;;37.83;14.43;;;0.70;99.90;;;;;;5104583;28;20043;-81
2022/12/11 07:39:20;;;;;;;43.03;14.77;;;1.30;99.90;;;;;;5106387;28;20092;-81
2022/12/11 07:41:46;;;;;;;34.33;13.23;;;0.70;99.90;;;;;;5105282;28;20067;-81
2022/12/11 07:44:12;;;;;;;36.10;14.57;;;0.70;99.90;;;;;;5105022;28;20039;-80
2022/12/11 07:46:38;;;;;;;35.10;13.73;;;0.70;99.90;;;;;;5107040;28;20145;-81
2022/12/11 07:49:05;;;;;;;40.15;14.13;;;0.70;99.90;;;;;;5087208;28;20043;-80
2022/12/11 07:51:34;;;;;;;40.42;13.90;;;0.70;99.90;;;;;;5090194;28;20132;-80
2022/12/11 07:54:20;;;;;;;42.78;14.63;;;0.70;99.90;;;;;;5104300;28;20054;-80
2022/12/11 07:56:47;;;;;;;43.03;13.00;;;0.70;99.90;;;;;;5105141;28;20055;-80
2022/12/11 07:59:13;;;;;;;35.55;13.00;;;0.70;99.90;;;;;;5106064;28;20429;-81
2022/12/11 08:01:40;;;;;;;36.53;13.82;;;0.70;99.90;;;;;;5104358;28;20043;-80
2022/12/11 08:04:08;;;;;;;34.92;12.85;;;0.80;99.90;;;;;;5106269;28;20512;-81
2022/12/11 08:06:36;;;;;;;36.50;12.93;;;0.70;99.90;;;;;;5088142;28;20039;-81
2022/12/11 08:09:08;;;;;;;39.72;12.63;;;1.20;99.90;;;;;;5106024;28;20058;-82
2022/12/11 08:11:34;;;;;;;42.72;15.10;;;0.80;99.90;;;;;;5088128;28;20125;-82
2022/12/11 08:14:01;;;;;;;36.72;14.52;;;0.80;99.90;;;;;;5089062;28;20040;-82
2022/12/11 08:16:27;;;;;;;39.45;13.82;;;0.80;99.90;;;;;;5105932;28;20380;-82
2022/12/11 08:18:53;;;;;;;33.20;12.07;;;0.80;99.90;;;;;;5104877;28;20046;-80
2022/12/11 08:21:28;;;;;;;41.85;14.30;;;0.80;99.90;;;;;;5089061;28;20048;-81
2022/12/11 08:23:54;;;;;;;38.67;14.27;;;0.80;99.90;;;;;;5105593;28;20394;-81
2022/12/11 08:26:27;;;;;;;40.83;14.15;;;1.50;99.90;;;;;;5105181;28;20043;-83
2022/12/11 08:28:52;;;;;;;40.05;14.48;;;0.80;99.90;;;;;;5103437;28;20075;-81
2022/12/11 08:31:19;;;;;;;42.95;14.20;;;0.80;99.90;;;;;;5104989;28;20144;-80
2022/12/11 08:33:45;;;;;;;43.53;14.48;;;1.40;99.90;;;;;;5106115;28;20122;-83
2022/12/11 08:36:14;;;;;;;45.20;13.35;;;0.80;99.90;;;;;;5105856;28;20043;-86
2022/12/11 08:38:40;;;;;;;37.08;13.40;;;0.80;99.90;;;;;;5107084;28;20040;-83
2022/12/11 08:41:18;;;;;;;38.10;14.13;;;0.90;99.90;;;;;;5103263;28;20060;-83
2022/12/11 08:43:44;;;;;;;31.85;14.05;;;0.90;99.90;;;;;;5104197;28;20042;-83
2022/12/11 08:46:11;;;;;;;32.75;13.23;;;0.90;99.90;;;;;;5103734;28;20552;-82
2022/12/11 08:48:39;;;;;;;36.20;14.95;;;0.90;99.90;;;;;;5071157;28;20047;-82
2022/12/11 08:51:07;;;;;;;45.17;14.50;;;1.90;99.90;;;;;;5088517;28;20104;-83
2022/12/11 08:53:33;;;;;;;45.53;16.15;;;0.80;99.90;;;;;;5104041;28;20039;-83
2022/12/11 08:56:04;;;;;;;41.10;15.07;;;0.80;99.90;;;;;;5108606;28;20054;-86
2022/12/11 08:58:29;;;;;;;38.97;14.57;;;0.90;99.90;;;;;;5105053;28;20055;-87
2022/12/11 09:00:56;;;;;;;46.80;14.52;;;0.80;99.90;;;;;;5106384;28;20043;-84
2022/12/11 09:03:22;;;;;;;47.75;16.48;;;0.90;99.90;;;;;;5104302;28;20494;-86
2022/12/11 09:05:48;;;;;;;39.22;14.60;;;0.90;99.90;;;;;;5105476;28;20027;-83
2022/12/11 09:08:14;;;;;;;41.78;15.15;;;0.90;99.90;;;;;;5104691;28;20054;-84
2022/12/11 09:10:39;;;;;;;44.80;13.90;;;0.90;99.90;;;;;;5087291;28;20392;-84
2022/12/11 09:13:05;;;;;;;39.45;14.23;;;0.90;99.90;;;;;;5071853;28;20040;-84
2022/12/11 09:15:31;;;;;;;49.00;15.98;;;0.90;99.90;;;;;;5103816;28;20048;-82
2022/12/11 09:17:56;;;;;;;40.63;15.85;;;0.90;99.90;;;;;;5105069;28;20059;-82
2022/12/11 09:20:22;;;;;;;42.55;15.63;;;0.90;99.90;;;;;;5086069;28;20513;-80
2022/12/11 09:22:48;;;;;;;41.88;15.35;;;1.70;99.90;;;;;;5104307;28;20054;-84
2022/12/11 09:25:13;;;;;;;45.95;15.52;;;0.90;99.90;;;;;;5104250;28;20554;-82
2022/12/11 09:27:39;;;;;;;40.33;14.55;;;0.90;99.90;;;;;;5070057;28;20483;-81
2022/12/11 09:30:06;;;;;;;43.05;16.48;;;0.90;99.90;;;;;;5071129;28;20039;-82
2022/12/11 09:32:33;;;;;;;40.30;14.43;;;0.90;99.90;;;;;;5103505;28;20089;-81
2022/12/11 09:34:59;;;;;;;41.65;15.35;;;0.90;99.90;;;;;;5104318;28;20043;-82
2022/12/11 09:37:25;;;;;;;41.33;15.05;;;0.90;99.90;;;;;;5103786;28;20048;-80
2022/12/11 09:39:50;;;;;;;45.10;15.93;;;0.90;99.90;;;;;;5104341;28;20043;-82
2022/12/11 09:42:19;;;;;;;38.95;14.45;;;1.10;99.90;;;;;;5069749;28;20042;-81
2022/12/11 09:44:47;;;;;;;47.00;17.60;;;1.00;99.90;;;;;;5087107;28;20075;-81
2022/12/11 09:47:19;;;;;;;38.53;13.77;;;0.90;99.90;;;;;;5104517;28;20050;-83
2022/12/11 09:49:48;;;;;;;49.63;15.75;;;1.00;99.90;;;;;;5103611;28;20433;-82
2022/12/11 09:52:24;;;;;;;41.58;14.95;;;0.90;99.90;;;;;;5104291;28;20031;-82
2022/12/11 09:54:56;;;;;;;42.05;14.85;;;1.00;99.90;;;;;;5102798;28;20086;-82
2022/12/11 09:57:31;;;;;;;47.63;17.25;;;1.00;99.90;;;;;;5091215;28;20089;-83
2022/12/11 10:00:32;;;;;;;46.45;15.73;;;1.00;99.90;;;;;;5108204;28;20395;-82
2022/12/11 10:03:10;;;;;;;43.15;15.60;;;1.00;99.90;;;;;;5095641;28;20127;-84
2022/12/11 10:05:57;;;;;;;50.58;16.17;;;1.00;99.90;;;;;;5107632;28;20449;-84
2022/12/11 10:08:29;;;;;;;46.70;15.63;;;1.10;99.90;;;;;;5121731;27;20059;-83
2022/12/11 10:11:18;;;;;;;38.05;15.80;;;1.90;99.90;;;;;;5128715;27;20047;-83
2022/12/11 10:14:19;;;;;;;42.72;16.15;;;1.10;99.90;;;;;;5118203;27;20050;-81
2022/12/11 10:16:50;;;;;;;37.20;14.85;;;1.10;99.90;;;;;;5084315;27;20059;-83
2022/12/11 10:19:20;;;;;;;49.65;16.38;;;1.10;99.90;;;;;;5110673;27;20498;-82
2022/12/11 10:21:49;;;;;;;44.88;15.50;;;1.10;99.90;;;;;;5110933;27;20092;-82
2022/12/11 10:24:19;;;;;;;47.38;17.92;;;1.10;99.90;;;;;;5092440;27;20043;-82
2022/12/11 10:26:46;;;;;;;44.47;15.75;;;1.10;99.90;;;;;;5110432;27;20039;-80
2022/12/11 10:29:14;;;;;;;47.50;17.02;;;1.10;99.90;;;;;;5109481;27;20039;-83
2022/12/11 10:31:52;;;;;;;42.20;14.80;;;1.20;99.90;;;;;;5110144;27;20096;-83
2022/12/11 10:34:34;;;;;;;49.72;16.98;;;1.20;99.90;;;;;;5110494;27;20053;-83
2022/12/11 10:37:01;;;;;;;56.13;16.30;;;1.20;99.90;;;;;;5109422;27;20047;-82
2022/12/11 10:39:27;;;;;;;42.15;16.02;;;1.20;99.90;;;;;;5076260;27;20038;-80
2022/12/11 10:41:54;;;;;;;46.40;15.57;;;1.20;99.90;;;;;;5109911;27;20071;-81
2022/12/11 10:44:30;;;;;;;48.05;15.95;;;1.30;99.90;;;;;;5110144;27;20035;-81
2022/12/11 10:47:10;;;;;;;44.53;16.67;;;1.30;99.90;;;;;;5109481;27;20041;-80
2022/12/11 10:49:37;;;;;;;53.30;17.92;;;1.90;99.90;;;;;;5109875;27;20039;-81
2022/12/11 10:52:37;;;;;;;49.33;16.33;;;1.50;99.90;;;;;;5092977;27;20040;-83
2022/12/11 10:55:25;;;;;;;44.42;17.27;;;1.30;99.90;;;;;;5108769;27;20039;-80
2022/12/11 10:57:58;;;;;;;50.05;17.20;;;1.30;99.90;;;;;;5109214;27;20051;-81
2022/12/11 11:00:28;;;;;;;;;;;1.30;99.90;;;;;;5111094;27;20448;-81
2022/12/11 11:02:54;;;;;;;39.78;16.35;;;1.40;99.90;;;;;;5092261;27;20009;-81
2022/12/11 11:05:31;;;;;;;42.17;16.65;;;1.50;99.90;;;;;;5109722;27;20557;-80
2022/12/11 11:08:21;;;;;;;45.80;17.15;;;1.40;99.90;;;;;;5108103;27;20055;-81
2022/12/11 11:10:58;;;;;;;45.95;17.33;;;1.40;99.90;;;;;;5110296;27;20079;-81
2022/12/11 11:13:26;;;;;;;41.17;16.73;;;1.40;99.90;;;;;;5109742;27;20051;-81
2022/12/11 11:16:24;;;;;;;43.03;16.95;;;1.40;99.90;;;;;;5091795;27;20043;-81
2022/12/11 11:18:53;;;;;;;47.47;18.40;;;1.40;99.90;;;;;;5048643;27;20524;-81
2022/12/11 11:21:22;;;;;;;41.13;15.88;;;1.40;99.90;;;;;;5109419;27;20055;-80
2022/12/11 11:23:47;;;;;;;45.45;18.58;;;1.40;99.90;;;;;;5110021;27;20062;-81
2022/12/11 11:26:14;;;;;;;45.03;16.95;;;1.40;99.90;;;;;;5109400;27;20130;-81
2022/12/11 11:28:46;;;;;;;45.45;17.45;;;1.40;99.90;;;;;;5093024;27;20046;-81
2022/12/11 11:31:13;;;;;;;41.85;16.13;;;1.40;99.90;;;;;;5110179;27;20043;-82
2022/12/11 11:33:56;;;;;;;46.92;17.00;;;1.40;99.90;;;;;;5108411;27;20043;-80
2022/12/11 11:36:33;;;;;;;47.33;17.23;;;1.50;99.90;;;;;;5110711;27;20398;-80
2022/12/11 11:39:26;;;;;;;40.60;16.45;;;1.40;99.90;;;;;;5109475;27;20477;-80
2022/12/11 11:42:03;;;;;;;54.40;18.03;;;1.50;99.90;;;;;;5092940;27;20082;-79
2022/12/11 11:44:38;;;;;;;47.17;17.10;;;1.50;99.90;;;;;;5094792;27;20289;-79
2022/12/11 11:47:16;;;;;;;45.10;16.42;;;1.50;99.90;;;;;;5092602;27;20043;-79
2022/12/11 11:50:02;;;;;;;42.85;16.95;;;1.50;99.90;;;;;;5095114;27;20039;-81
2022/12/11 11:52:33;;;;;;;48.47;16.65;;;1.50;99.90;;;;;;5111512;27;20418;-81
2022/12/11 11:55:12;;;;;;;54.60;16.67;;;1.60;99.90;;;;;;5093705;27;20054;-80
2022/12/11 11:57:44;;;;;;;39.13;15.98;;;1.50;99.90;;;;;;5112119;27;21021;-81
2022/12/11 12:00:23;;;;;;;42.05;15.40;;;1.50;99.90;;;;;;5128914;27;20039;-81
2022/12/11 12:03:14;;;;;;;44.00;16.50;;;1.50;99.90;;;;;;5111617;27;20093;-80
2022/12/11 12:06:09;;;;;;;36.17;16.60;;;1.50;99.90;;;;;;5100040;27;20062;-81
2022/12/11 12:08:43;;;;;;;45.92;18.70;;;1.50;99.90;;;;;;5093280;27;20059;-80
2022/12/11 12:11:24;;;;;;;43.25;16.75;;;1.50;99.90;;;;;;5111861;27;20108;-81
2022/12/11 12:14:32;;;;;;;37.60;16.00;;;1.50;99.90;;;;;;5111297;27;20046;-79
2022/12/11 12:17:19;;;;;;;44.42;17.35;;;1.50;99.90;;;;;;5012328;28;20131;-81
2022/12/11 12:20:03;;;;;;;43.13;17.88;;;1.50;99.90;;;;;;5106134;27;20130;-81
2022/12/11 12:22:53;;;;;;;42.83;16.40;;;1.50;99.90;;;;;;5094312;27;20080;-81
2022/12/11 12:25:28;;;;;;;46.13;17.50;;;1.60;99.90;;;;;;5128503;27;20089;-81
2022/12/11 12:28:03;;;;;;;41.83;18.13;;;1.60;99.90;;;;;;5094364;27;20043;-80
2022/12/11 12:30:37;;;;;;;43.65;19.38;;;1.60;99.90;;;;;;5128449;27;20129;-81
2022/12/11 12:33:03;;;;;;;44.55;18.17;;;1.60;99.90;;;;;;5129305;27;20039;-81
2022/12/11 12:35:34;;;;;;;45.55;17.02;;;1.60;99.90;;;;;;5110441;27;20049;-81
2022/12/11 12:38:03;;;;;;;47.78;16.85;;;1.60;99.90;;;;;;5109623;27;20570;-82
2022/12/11 12:40:36;;;;;;;45.55;21.30;;;1.60;99.90;;;;;;5110809;27;20055;-80
2022/12/11 12:43:05;;;;;;;41.50;17.10;;;1.60;99.90;;;;;;5109301;27;20103;-81
2022/12/11 12:46:02;;;;;;;49.25;18.45;;;1.60;99.90;;;;;;5111390;28;20070;-80
2022/12/11 12:48:28;;;;;;;43.97;17.38;;;1.60;99.90;;;;;;5109944;27;20046;-80
2022/12/11 12:50:55;;;;;;;45.70;17.65;;;1.60;99.90;;;;;;5092317;27;20083;-81
2022/12/11 12:53:27;;;;;;;40.47;16.13;;;1.60;99.90;;;;;;5077318;28;20405;-80
2022/12/11 12:55:53;;;;;;;36.90;14.25;;;2.70;99.90;;;;;;5092772;27;20164;-81
2022/12/11 12:58:28;;;;;;;46.45;17.63;;;1.60;99.90;;;;;;5093915;28;20056;-81
2022/12/11 13:01:05;;;;;;;39.38;17.00;;;1.60;99.90;;;;;;5092553;28;20138;-80